Time;durP1;ratioP1;P1;durP2;ratioP2;P2;SDS_P1;SDS_P2;PMS_P1;PMS_P2;Temp;Humidity;BMP_temperature;BMP_pressure;BME280_temperature;BME280_humidity;BME280_pressure;Samples;Min_cycle;Max_cycle;Signal;HPM_P1;HPM_P2
2023/05/27 00:00:05;;;;;;;13.00;3.83;;;11.30;99.90;;;;;;6287983;22;20035;-92
2023/05/27 00:02:30;;;;;;;11.07;3.53;;;11.20;99.90;;;;;;6287819;22;20007;-92
2023/05/27 00:04:56;;;;;;;15.32;4.55;;;11.20;99.90;;;;;;6288685;22;20057;-91
2023/05/27 00:07:22;;;;;;;13.35;3.58;;;11.20;99.90;;;;;;6288941;22;20429;-91
2023/05/27 00:09:48;;;;;;;17.35;4.75;;;11.20;99.90;;;;;;6289032;22;20006;-91
2023/05/27 00:12:13;;;;;;;10.75;4.50;;;11.20;99.90;;;;;;6293381;22;20026;-91
2023/05/27 00:14:39;;;;;;;14.70;3.45;;;11.20;99.90;;;;;;6324686;22;20014;-90
2023/05/27 00:17:05;;;;;;;10.10;3.33;;;11.20;99.90;;;;;;6293579;22;20042;-91
2023/05/27 00:19:31;;;;;;;14.02;3.78;;;11.20;99.90;;;;;;6289221;22;20010;-92
2023/05/27 00:21:57;;;;;;;10.48;4.03;;;11.20;99.90;;;;;;6288765;22;20003;-90
2023/05/27 00:24:23;;;;;;;14.90;4.13;;;11.10;99.90;;;;;;6288240;22;20011;-93
2023/05/27 00:26:49;;;;;;;7.32;3.60;;;11.10;99.90;;;;;;6287234;22;20004;-92
2023/05/27 00:29:16;;;;;;;10.85;3.70;;;11.00;99.90;;;;;;6315549;22;20015;-92
2023/05/27 00:31:42;;;;;;;10.57;4.38;;;11.00;99.90;;;;;;6288073;22;20640;-91
2023/05/27 00:34:07;;;;;;;9.70;4.00;;;10.80;99.90;;;;;;6287942;22;20007;-92
2023/05/27 00:36:33;;;;;;;14.43;3.28;;;10.80;99.90;;;;;;6314993;22;20029;-92
2023/05/27 00:39:00;;;;;;;11.25;3.45;;;10.80;99.90;;;;;;6261878;22;20007;-92
2023/05/27 00:41:26;;;;;;;13.85;4.05;;;10.70;99.90;;;;;;6315011;22;20477;-92
2023/05/27 00:43:52;;;;;;;11.55;3.90;;;10.60;99.90;;;;;;6287764;22;20031;-92
2023/05/27 00:46:18;;;;;;;10.27;4.18;;;10.60;99.90;;;;;;6287701;22;20009;-92
2023/05/27 00:48:45;;;;;;;12.05;3.60;;;10.60;99.90;;;;;;6287799;22;20011;-92
2023/05/27 00:51:11;;;;;;;11.35;3.92;;;10.50;99.90;;;;;;6288681;22;20081;-92
2023/05/27 00:53:41;;;;;;;9.93;3.55;;;10.40;99.90;;;;;;6288490;22;20027;-92
2023/05/27 00:56:08;;;;;;;13.52;4.43;;;10.40;99.90;;;;;;6289187;22;20102;-91
2023/05/27 00:58:35;;;;;;;17.00;4.72;;;10.30;99.90;;;;;;6292991;22;20450;-91
2023/05/27 01:01:02;;;;;;;14.18;4.75;;;10.20;99.90;;;;;;6305275;22;20003;-90
2023/05/27 01:03:28;;;;;;;7.45;3.83;;;10.20;99.90;;;;;;6304285;22;20030;-91
2023/05/27 01:06:07;;;;;;;13.15;4.03;;;10.20;99.90;;;;;;6302627;22;19999;-92
2023/05/27 01:09:07;;;;;;;9.45;3.67;;;10.10;99.90;;;;;;6303160;22;20003;-90
2023/05/27 01:11:46;;;;;;;15.15;3.95;;;10.00;99.90;;;;;;6232166;22;19995;-92
2023/05/27 01:14:16;;;;;;;13.95;4.32;;;10.00;99.90;;;;;;6298832;22;20062;-93
2023/05/27 01:16:45;;;;;;;13.40;4.68;;;9.90;99.90;;;;;;6285660;22;20057;-92
2023/05/27 01:19:26;;;;;;;9.32;3.63;;;9.90;99.90;;;;;;6264813;22;20080;-91
2023/05/27 01:21:54;;;;;;;8.10;3.28;;;9.80;99.90;;;;;;6292889;22;20027;-91
2023/05/27 01:24:20;;;;;;;10.95;4.60;;;9.80;99.90;;;;;;6297159;22;19999;-92
2023/05/27 01:26:45;;;;;;;13.57;3.53;;;9.80;99.90;;;;;;6296029;22;20003;-91
2023/05/27 01:29:11;;;;;;;14.15;4.20;;;9.70;99.90;;;;;;6295999;22;20011;-91
2023/05/27 01:32:08;;;;;;;10.10;4.20;;;9.60;99.90;;;;;;6294111;22;20475;-92
2023/05/27 01:34:46;;;;;;;10.60;4.53;;;9.60;99.90;;;;;;6294026;22;20004;-91
2023/05/27 01:37:16;;;;;;;10.23;4.22;;;9.50;99.90;;;;;;6294451;22;20021;-91
2023/05/27 01:39:43;;;;;;;15.00;4.07;;;9.50;99.90;;;;;;6294781;22;19999;-92
2023/05/27 01:42:09;;;;;;;12.48;4.13;;;9.50;99.90;;;;;;6291971;22;20002;-91
2023/05/27 01:44:36;;;;;;;8.43;3.58;;;9.50;99.90;;;;;;6295384;22;20000;-91
2023/05/27 01:47:02;;;;;;;8.75;3.72;;;9.40;99.90;;;;;;6273654;22;20029;-91
2023/05/27 01:49:29;;;;;;;12.52;3.78;;;9.40;99.90;;;;;;6284226;22;20099;-91
2023/05/27 01:51:55;;;;;;;12.50;3.95;;;9.40;99.90;;;;;;6288475;22;20000;-92
2023/05/27 01:54:21;;;;;;;10.52;4.28;;;9.30;99.90;;;;;;6289821;22;20007;-92
2023/05/27 01:56:47;;;;;;;17.15;4.50;;;9.30;99.90;;;;;;6288740;22;20306;-92
2023/05/27 01:59:12;;;;;;;13.05;4.90;;;9.30;99.90;;;;;;6289829;22;20001;-90
2023/05/27 02:01:38;;;;;;;12.98;4.13;;;9.20;99.90;;;;;;6289865;22;20091;-91
2023/05/27 02:04:04;;;;;;;12.35;4.93;;;9.10;99.90;;;;;;6289805;22;20003;-91
2023/05/27 02:06:30;;;;;;;9.40;4.50;;;9.00;99.90;;;;;;6288750;22;20007;-90
2023/05/27 02:08:55;;;;;;;11.45;4.70;;;9.00;99.90;;;;;;6288627;22;20003;-91
2023/05/27 02:11:21;;;;;;;9.68;4.45;;;8.90;99.90;;;;;;6288613;22;20010;-91
2023/05/27 02:13:47;;;;;;;11.10;4.22;;;8.90;99.90;;;;;;6289094;22;20064;-91
2023/05/27 02:16:14;;;;;;;11.00;4.57;;;8.80;99.90;;;;;;6288561;22;20031;-90
2023/05/27 02:18:40;;;;;;;10.27;4.03;;;8.80;99.90;;;;;;6289170;22;20106;-90
2023/05/27 02:21:06;;;;;;;9.50;3.40;;;8.80;99.90;;;;;;6289232;22;20041;-91
2023/05/27 02:23:36;;;;;;;8.43;4.05;;;8.80;99.90;;;;;;6263033;22;20007;-91
2023/05/27 02:26:02;;;;;;;10.38;3.63;;;8.70;99.90;;;;;;6288896;22;20023;-93
2023/05/27 02:28:27;;;;;;;13.80;4.45;;;8.70;99.90;;;;;;6288521;22;20041;-92
2023/05/27 02:30:53;;;;;;;12.43;3.97;;;8.60;99.90;;;;;;6288749;22;20007;-92
2023/05/27 02:33:20;;;;;;;10.00;3.88;;;8.60;99.90;;;;;;6314867;22;19995;-92
2023/05/27 02:35:46;;;;;;;11.05;3.90;;;8.60;99.90;;;;;;6288226;22;20030;-92
2023/05/27 02:38:11;;;;;;;10.02;3.30;;;8.60;99.90;;;;;;6288123;22;20402;-92
2023/05/27 02:40:37;;;;;;;9.48;4.20;;;8.60;99.90;;;;;;6288335;22;20453;-90
2023/05/27 02:43:03;;;;;;;10.55;3.58;;;8.50;99.90;;;;;;6288704;22;20350;-90
2023/05/27 02:45:28;;;;;;;11.98;4.22;;;8.50;99.90;;;;;;6288965;22;20122;-92
2023/05/27 02:47:59;;;;;;;10.32;4.60;;;8.40;99.90;;;;;;6288951;22;20007;-92
2023/05/27 02:50:25;;;;;;;11.43;4.00;;;8.30;99.90;;;;;;6288643;22;20022;-93
2023/05/27 02:52:51;;;;;;;10.15;3.90;;;8.30;99.90;;;;;;6288577;22;20423;-92
2023/05/27 02:55:16;;;;;;;12.57;4.30;;;8.30;99.90;;;;;;6288097;22;20127;-90
2023/05/27 02:57:42;;;;;;;10.85;4.20;;;8.20;99.90;;;;;;6287923;22;20018;-90
2023/05/27 03:00:09;;;;;;;7.43;4.25;;;8.20;99.90;;;;;;6288736;22;20053;-91
2023/05/27 03:02:35;;;;;;;10.75;4.13;;;8.10;99.90;;;;;;6291552;22;20011;-91
2023/05/27 03:05:00;;;;;;;8.98;4.00;;;8.10;99.90;;;;;;6293398;22;20003;-91
2023/05/27 03:07:29;;;;;;;9.45;4.70;;;8.00;99.90;;;;;;6289597;22;20012;-91
2023/05/27 03:09:55;;;;;;;10.05;3.97;;;8.00;99.90;;;;;;6289384;22;19999;-91
2023/05/27 03:12:22;;;;;;;12.75;4.40;;;7.90;99.90;;;;;;6288886;22;20061;-91
2023/05/27 03:14:47;;;;;;;12.18;4.10;;;7.90;99.90;;;;;;6289640;22;20003;-91
2023/05/27 03:17:13;;;;;;;9.15;4.43;;;7.90;99.90;;;;;;6288646;22;20071;-90
2023/05/27 03:19:39;;;;;;;12.10;4.60;;;7.80;99.90;;;;;;6288808;22;20003;-91
2023/05/27 03:22:07;;;;;;;11.75;5.68;;;7.80;99.90;;;;;;6289019;22;20014;-91
2023/05/27 03:24:33;;;;;;;11.63;4.18;;;7.80;99.90;;;;;;6289427;22;20082;-90
2023/05/27 03:27:01;;;;;;;13.68;4.40;;;7.80;99.90;;;;;;6288181;22;20007;-90
2023/05/27 03:29:27;;;;;;;11.52;4.53;;;7.70;99.90;;;;;;6289500;22;20011;-91
2023/05/27 03:31:52;;;;;;;15.55;4.32;;;7.70;99.90;;;;;;6289188;22;20078;-92
2023/05/27 03:34:18;;;;;;;10.70;4.30;;;7.70;99.90;;;;;;6292562;22;20014;-91
2023/05/27 03:36:45;;;;;;;9.27;4.07;;;7.70;99.90;;;;;;6289195;22;20485;-91
2023/05/27 03:39:12;;;;;;;11.60;5.32;;;7.70;99.90;;;;;;6289102;22;19999;-90
2023/05/27 03:41:38;;;;;;;9.85;4.82;;;7.70;99.90;;;;;;6300256;22;20033;-91
2023/05/27 03:44:04;;;;;;;13.00;5.20;;;7.60;99.90;;;;;;6288463;22;20477;-91
2023/05/27 03:46:29;;;;;;;13.45;4.32;;;7.50;99.90;;;;;;6294251;22;20033;-90
2023/05/27 03:48:55;;;;;;;14.95;4.53;;;7.50;99.90;;;;;;6306856;22;20003;-92
2023/05/27 03:51:21;;;;;;;12.45;4.47;;;7.40;99.90;;;;;;6306019;22;19995;-89
2023/05/27 03:53:47;;;;;;;13.63;4.95;;;7.40;99.90;;;;;;6305169;22;19999;-90
2023/05/27 03:56:13;;;;;;;9.82;4.88;;;7.40;99.90;;;;;;6302266;22;20007;-91
2023/05/27 03:58:38;;;;;;;10.85;4.40;;;7.40;99.90;;;;;;6304207;22;20034;-91
2023/05/27 04:01:05;;;;;;;15.48;5.20;;;7.30;99.90;;;;;;6300328;22;20013;-92
2023/05/27 04:03:31;;;;;;;12.38;4.30;;;7.30;99.90;;;;;;6293372;22;20003;-92
2023/05/27 04:05:58;;;;;;;12.50;4.03;;;7.30;99.90;;;;;;6293619;22;20007;-92
2023/05/27 04:08:26;;;;;;;13.35;4.57;;;7.30;99.90;;;;;;6295264;22;20012;-92
2023/05/27 04:10:52;;;;;;;14.05;5.10;;;7.20;99.90;;;;;;6322822;22;20009;-92
2023/05/27 04:13:18;;;;;;;10.13;4.32;;;7.20;99.90;;;;;;6294626;22;20003;-92
2023/05/27 04:15:44;;;;;;;12.27;4.85;;;7.10;99.90;;;;;;6292909;22;20485;-92
2023/05/27 04:18:10;;;;;;;9.93;4.38;;;7.10;99.90;;;;;;6292485;22;20003;-91
2023/05/27 04:20:42;;;;;;;10.00;4.55;;;7.00;99.90;;;;;;6292443;22;20346;-92
2023/05/27 04:23:08;;;;;;;8.27;4.28;;;7.00;99.90;;;;;;6289875;22;20026;-91
2023/05/27 04:25:34;;;;;;;9.57;4.68;;;7.00;99.90;;;;;;6289357;22;20083;-92
2023/05/27 04:28:03;;;;;;;9.93;4.18;;;7.00;99.90;;;;;;6289370;22;20451;-92
2023/05/27 04:30:30;;;;;;;10.57;4.53;;;7.00;99.90;;;;;;6293309;22;20010;-92
2023/05/27 04:32:56;;;;;;;15.68;4.90;;;7.00;99.90;;;;;;6290225;22;20027;-92
2023/05/27 04:35:23;;;;;;;12.13;5.30;;;7.00;99.90;;;;;;6289545;22;20003;-91
2023/05/27 04:37:49;;;;;;;10.48;4.93;;;7.10;99.90;;;;;;6289348;22;20366;-91
2023/05/27 04:40:14;;;;;;;15.48;4.75;;;7.10;99.90;;;;;;6289476;22;19996;-92
2023/05/27 04:42:43;;;;;;;15.82;4.68;;;7.10;99.90;;;;;;6289415;22;20012;-92
2023/05/27 04:45:11;;;;;;;9.07;4.55;;;7.20;99.90;;;;;;6289772;22;20003;-92
2023/05/27 04:47:37;;;;;;;10.05;4.53;;;7.20;99.90;;;;;;6289209;22;20007;-92
2023/05/27 04:50:07;;;;;;;9.63;4.22;;;7.20;99.90;;;;;;6289868;22;20003;-92
2023/05/27 04:52:36;;;;;;;8.88;4.50;;;7.10;99.90;;;;;;6288954;22;20007;-92
2023/05/27 04:55:05;;;;;;;10.67;5.70;;;7.20;99.90;;;;;;6290055;22;20530;-91
2023/05/27 04:57:32;;;;;;;11.93;4.47;;;7.10;99.90;;;;;;6289908;22;20435;-93
2023/05/27 05:00:17;;;;;;;9.07;4.28;;;7.10;99.90;;;;;;6317089;22;20038;-92
2023/05/27 05:02:46;;;;;;;9.10;5.00;;;7.10;99.90;;;;;;6317367;22;20358;-91
2023/05/27 05:05:12;;;;;;;16.50;5.22;;;7.10;99.90;;;;;;6317162;22;20004;-91
2023/05/27 05:07:39;;;;;;;14.55;5.68;;;7.10;99.90;;;;;;6291192;22;20013;-91
2023/05/27 05:10:07;;;;;;;15.55;5.55;;;7.10;99.90;;;;;;6302027;22;20004;-90
2023/05/27 05:12:32;;;;;;;12.30;5.07;;;7.20;99.90;;;;;;6306088;22;20014;-89
2023/05/27 05:14:58;;;;;;;12.23;5.15;;;7.20;99.90;;;;;;6303737;22;20031;-90
2023/05/27 05:17:25;;;;;;;13.38;5.03;;;7.20;99.90;;;;;;6305326;22;20053;-88
2023/05/27 05:19:52;;;;;;;16.65;5.53;;;7.20;99.90;;;;;;6304598;22;20011;-89
2023/05/27 05:22:19;;;;;;;11.90;5.70;;;7.10;99.90;;;;;;6303436;22;20015;-90
2023/05/27 05:24:46;;;;;;;10.80;5.53;;;7.10;99.90;;;;;;6305270;22;19999;-90
2023/05/27 05:27:11;;;;;;;14.13;6.25;;;7.20;99.90;;;;;;6304534;22;20027;-90
2023/05/27 05:29:37;;;;;;;16.80;5.30;;;7.20;99.90;;;;;;6318271;22;20397;-90
2023/05/27 05:32:03;;;;;;;14.95;5.45;;;7.20;99.90;;;;;;6292335;22;20046;-90
2023/05/27 05:34:29;;;;;;;12.90;5.28;;;7.20;99.90;;;;;;6292149;22;20003;-90
2023/05/27 05:36:55;;;;;;;11.65;5.53;;;7.10;99.90;;;;;;6317028;22;20465;-90
2023/05/27 05:39:21;;;;;;;14.75;5.97;;;7.10;99.90;;;;;;6316089;22;20048;-90
2023/05/27 05:41:47;;;;;;;12.77;5.35;;;7.20;99.90;;;;;;6290262;22;20414;-90
2023/05/27 05:44:12;;;;;;;18.77;5.97;;;7.20;99.90;;;;;;6290576;22;20439;-91
2023/05/27 05:46:38;;;;;;;10.38;5.30;;;7.20;99.90;;;;;;6290345;22;20320;-90
2023/05/27 05:49:05;;;;;;;11.98;5.90;;;7.30;99.90;;;;;;6290759;22;20002;-90
2023/05/27 05:51:31;;;;;;;17.83;5.47;;;7.40;99.90;;;;;;6316300;22;20014;-90
2023/05/27 05:53:57;;;;;;;14.43;5.90;;;7.50;99.90;;;;;;6290198;22;20011;-90
2023/05/27 05:56:23;;;;;;;16.50;5.90;;;7.50;99.90;;;;;;6296588;22;20011;-90
2023/05/27 05:58:49;;;;;;;20.25;6.20;;;7.60;99.90;;;;;;6317616;22;19999;-91
2023/05/27 06:01:15;;;;;;;15.80;5.93;;;7.70;99.90;;;;;;6289855;22;20004;-90
2023/05/27 06:03:41;;;;;;;23.33;6.38;;;7.80;99.90;;;;;;6290166;22;20011;-91
2023/05/27 06:06:07;;;;;;;15.60;5.50;;;7.90;99.90;;;;;;6315792;22;20007;-91
2023/05/27 06:08:33;;;;;;;16.20;6.03;;;8.00;99.90;;;;;;6315803;22;20004;-91
2023/05/27 06:10:59;;;;;;;14.43;6.75;;;8.10;99.90;;;;;;6315705;22;20028;-91
2023/05/27 06:13:24;;;;;;;17.10;6.47;;;8.20;99.90;;;;;;6305139;22;20004;-92
2023/05/27 06:15:50;;;;;;;19.63;6.07;;;8.30;99.90;;;;;;6289546;22;20063;-91
2023/05/27 06:18:16;;;;;;;19.20;6.40;;;8.40;99.90;;;;;;6288555;22;20054;-92
2023/05/27 06:20:42;;;;;;;18.80;5.70;;;8.50;99.90;;;;;;6288565;22;20011;-92
2023/05/27 06:23:07;;;;;;;16.52;5.72;;;8.70;99.90;;;;;;6283928;22;20342;-92
2023/05/27 06:25:33;;;;;;;15.20;5.68;;;8.80;99.90;;;;;;6315174;22;20018;-91
2023/05/27 06:27:59;;;;;;;14.27;5.03;;;8.90;99.90;;;;;;6315275;22;20430;-91
2023/05/27 06:30:25;;;;;;;16.58;5.63;;;8.90;99.90;;;;;;6309904;22;20034;-92
2023/05/27 06:32:51;;;;;;;16.77;5.70;;;9.00;99.90;;;;;;6284469;22;19999;-93
2023/05/27 06:35:17;;;;;;;14.52;5.68;;;9.10;99.90;;;;;;6287680;22;20034;-93
2023/05/27 06:37:43;;;;;;;14.93;5.32;;;9.30;99.90;;;;;;6282570;22;20031;-91
2023/05/27 06:40:10;;;;;;;11.77;5.07;;;9.40;99.90;;;;;;6282576;22;20008;-92
2023/05/27 06:42:36;;;;;;;18.38;5.68;;;9.50;99.90;;;;;;6281961;22;20461;-91
2023/05/27 06:45:02;;;;;;;13.40;5.10;;;9.60;99.90;;;;;;6282545;22;20082;-92
2023/05/27 06:47:27;;;;;;;14.48;5.10;;;9.70;99.90;;;;;;6282019;22;20003;-91
2023/05/27 06:49:53;;;;;;;15.65;5.07;;;9.80;99.90;;;;;;6282201;22;20416;-91
2023/05/27 06:52:19;;;;;;;17.00;4.63;;;9.90;99.90;;;;;;6283657;22;20007;-91
2023/05/27 06:54:45;;;;;;;14.48;4.72;;;10.00;99.90;;;;;;6287150;22;20003;-92
2023/05/27 06:57:11;;;;;;;16.40;5.25;;;10.10;99.90;;;;;;6282467;22;20011;-93
2023/05/27 06:59:37;;;;;;;15.13;4.88;;;10.30;99.90;;;;;;6282988;22;20014;-92
2023/05/27 07:02:02;;;;;;;14.20;4.75;;;10.40;99.90;;;;;;6307941;22;20065;-91
2023/05/27 07:04:28;;;;;;;18.27;5.22;;;10.50;99.90;;;;;;6281824;22;20062;-92
2023/05/27 07:06:54;;;;;;;23.52;5.22;;;10.70;99.90;;;;;;6281299;22;20485;-92
2023/05/27 07:09:19;;;;;;;29.30;4.30;;;10.80;99.90;;;;;;6292899;22;20010;-91
2023/05/27 07:11:45;;;;;;;18.98;3.80;;;11.00;99.90;;;;;;6282999;22;20057;-92
2023/05/27 07:14:11;;;;;;;15.90;4.45;;;11.10;99.90;;;;;;6282751;22;20025;-91
2023/05/27 07:16:37;;;;;;;13.98;4.55;;;11.20;99.90;;;;;;6282631;22;20011;-92
2023/05/27 07:19:03;;;;;;;15.82;4.22;;;11.40;99.90;;;;;;6287040;22;19996;-92
2023/05/27 07:21:28;;;;;;;16.55;3.70;;;11.50;99.90;;;;;;6297631;22;20433;-92
2023/05/27 07:23:54;;;;;;;22.02;4.95;;;11.60;99.90;;;;;;6284735;22;20013;-92
2023/05/27 07:26:21;;;;;;;15.05;3.70;;;11.80;99.90;;;;;;6280466;22;20007;-92
2023/05/27 07:28:48;;;;;;;24.67;4.38;;;11.90;99.90;;;;;;6308504;22;20015;-92
2023/05/27 07:31:13;;;;;;;14.38;3.47;;;12.10;99.90;;;;;;6309150;22;20003;-92
2023/05/27 07:33:40;;;;;;;18.67;4.10;;;12.20;99.90;;;;;;6307526;22;20004;-92
2023/05/27 07:36:06;;;;;;;19.67;4.72;;;12.30;99.90;;;;;;6308785;22;20015;-94
2023/05/27 07:38:32;;;;;;;16.05;3.58;;;12.40;99.90;;;;;;6284035;22;20002;-93
2023/05/27 07:40:57;;;;;;;17.67;3.85;;;12.50;99.90;;;;;;6308035;22;20094;-93
2023/05/27 07:43:24;;;;;;;15.20;3.75;;;12.60;99.90;;;;;;6286349;22;20026;-92
2023/05/27 07:45:50;;;;;;;15.50;3.97;;;12.70;99.90;;;;;;6282116;22;20007;-90
2023/05/27 07:48:16;;;;;;;14.80;3.72;;;12.80;99.90;;;;;;6281273;22;20010;-92
2023/05/27 07:50:41;;;;;;;20.30;3.63;;;12.90;99.90;;;;;;6307112;22;20440;-93
2023/05/27 07:53:08;;;;;;;15.57;4.35;;;13.00;99.90;;;;;;6283035;22;20039;-92
2023/05/27 07:55:33;;;;;;;18.42;4.47;;;13.20;99.90;;;;;;6294413;22;19999;-93
2023/05/27 07:58:00;;;;;;;18.88;4.20;;;13.30;99.90;;;;;;6282519;22;20007;-94
2023/05/27 08:00:25;;;;;;;19.35;3.72;;;13.40;99.90;;;;;;6281726;22;20052;-94
2023/05/27 08:02:51;;;;;;;17.27;3.67;;;13.50;99.90;;;;;;6307898;22;20431;-94
2023/05/27 08:05:17;;;;;;;20.52;3.90;;;13.70;99.90;;;;;;6281684;22;20010;-91
2023/05/27 08:07:43;;;;;;;13.18;3.80;;;13.80;99.90;;;;;;6281907;22;20004;-90
2023/05/27 08:10:09;;;;;;;17.25;3.47;;;13.90;99.90;;;;;;6281760;22;20011;-91
2023/05/27 08:12:34;;;;;;;16.77;3.80;;;14.00;99.90;;;;;;6282298;22;19996;-91
2023/05/27 08:15:00;;;;;;;16.27;3.20;;;14.20;99.90;;;;;;6307528;22;20018;-93
2023/05/27 08:17:26;;;;;;;15.23;3.65;;;14.30;99.90;;;;;;6281955;22;20018;-92
2023/05/27 08:19:53;;;;;;;16.40;3.92;;;14.50;99.90;;;;;;6281135;22;20045;-92
2023/05/27 08:22:18;;;;;;;14.50;3.60;;;14.60;99.90;;;;;;6282131;22;20011;-92
2023/05/27 08:24:44;;;;;;;15.27;3.40;;;14.80;99.90;;;;;;6281525;22;19999;-93
2023/05/27 08:27:18;;;;;;;14.50;3.50;;;14.90;99.90;;;;;;6281225;22;20012;-93
2023/05/27 08:29:44;;;;;;;14.85;3.50;;;15.10;99.90;;;;;;6281479;22;20034;-93
2023/05/27 08:32:10;;;;;;;17.95;3.67;;;15.20;99.90;;;;;;6307105;22;20003;-93
2023/05/27 08:34:36;;;;;;;14.48;3.78;;;15.30;98.90;;;;;;6284242;22;20078;-93
2023/05/27 08:37:03;;;;;;;13.00;3.25;;;15.50;97.90;;;;;;6309550;22;20034;-94
2023/05/27 08:39:29;;;;;;;14.85;3.03;;;15.70;96.50;;;;;;6282168;22;20053;-94
2023/05/27 08:41:58;;;;;;;17.13;3.67;;;15.70;95.40;;;;;;6307501;22;20008;-94
2023/05/27 08:44:24;;;;;;;9.75;2.83;;;15.90;94.90;;;;;;6307868;22;20086;-95
2023/05/27 08:46:50;;;;;;;13.82;3.97;;;16.00;94.20;;;;;;6285040;22;20086;-93
2023/05/27 08:49:19;;;;;;;15.93;3.80;;;16.10;93.60;;;;;;6312310;22;20003;-94
2023/05/27 08:51:46;;;;;;;16.27;2.83;;;16.20;93.10;;;;;;6284691;22;20003;-94
2023/05/27 08:54:15;;;;;;;12.68;3.25;;;16.30;92.50;;;;;;6284040;22;20090;-94
2023/05/27 08:56:42;;;;;;;17.02;3.17;;;16.40;91.80;;;;;;6309537;22;20119;-94
2023/05/27 08:59:08;;;;;;;13.55;3.10;;;16.60;91.30;;;;;;6283937;22;19995;-94
2023/05/27 09:01:35;;;;;;;15.50;4.03;;;16.70;90.70;;;;;;6310572;22;20007;-94
2023/05/27 09:04:01;;;;;;;21.13;3.00;;;16.80;90.00;;;;;;6284972;22;20003;-94
2023/05/27 09:06:26;;;;;;;11.45;2.88;;;16.90;88.70;;;;;;6258664;22;20381;-95
2023/05/27 09:08:52;;;;;;;16.35;3.78;;;17.10;87.90;;;;;;6310402;22;20365;-94
2023/05/27 09:11:26;;;;;;;17.05;3.95;;;17.30;86.80;;;;;;6284098;22;20003;-94
2023/05/27 09:13:55;;;;;;;14.43;3.08;;;17.30;86.00;;;;;;6285316;22;20138;-94
2023/05/27 09:16:21;;;;;;;15.85;3.63;;;17.50;85.70;;;;;;6286767;22;20011;-94
2023/05/27 09:18:48;;;;;;;20.52;3.97;;;17.60;84.40;;;;;;6286798;22;20057;-94
2023/05/27 09:21:15;;;;;;;15.90;3.83;;;17.60;83.80;;;;;;6319013;22;20093;-93
2023/05/27 09:23:41;;;;;;;19.30;4.00;;;17.80;83.40;;;;;;6293739;22;19995;-93
2023/05/27 09:26:10;;;;;;;13.65;3.63;;;17.90;82.90;;;;;;6296627;22;19995;-93
2023/05/27 09:28:37;;;;;;;11.77;2.92;;;18.10;81.60;;;;;;6321549;22;20011;-91
2023/05/27 09:31:07;;;;;;;16.88;3.50;;;18.20;81.10;;;;;;6330303;22;20438;-94
2023/05/27 09:33:35;;;;;;;16.58;3.35;;;18.40;80.80;;;;;;6331494;22;20002;-93
2023/05/27 09:36:03;;;;;;;16.38;3.45;;;18.50;80.20;;;;;;6331501;22;20077;-94
2023/05/27 09:38:33;;;;;;;15.70;3.28;;;18.60;79.40;;;;;;6329256;22;20010;-95
2023/05/27 09:41:00;;;;;;;15.82;3.67;;;18.70;79.00;;;;;;6326414;22;20035;-93
2023/05/27 09:43:27;;;;;;;19.40;3.67;;;18.90;79.00;;;;;;6329465;22;20082;-92
2023/05/27 09:46:03;;;;;;;14.60;3.65;;;19.00;78.20;;;;;;6331042;22;20005;-93
2023/05/27 09:48:31;;;;;;;19.05;4.18;;;19.20;77.30;;;;;;6320887;22;20011;-94
2023/05/27 09:50:59;;;;;;;13.75;3.28;;;19.40;77.10;;;;;;6324712;22;20529;-94
2023/05/27 09:53:26;;;;;;;12.57;2.72;;;19.60;76.60;;;;;;6316341;22;20027;-95
2023/05/27 09:55:57;;;;;;;13.20;3.42;;;19.80;75.30;;;;;;6314068;22;20092;-95
2023/05/27 09:58:24;;;;;;;13.05;3.03;;;19.80;73.80;;;;;;6315629;22;20030;-93
2023/05/27 10:00:50;;;;;;;12.23;3.05;;;20.00;73.80;;;;;;6331356;22;19990;-93
2023/05/27 10:03:20;;;;;;;16.08;3.50;;;20.10;73.20;;;;;;6328180;22;20003;-94
2023/05/27 10:05:49;;;;;;;16.17;3.13;;;20.30;72.40;;;;;;6327513;22;19995;-95
2023/05/27 10:08:15;;;;;;;10.18;3.17;;;20.40;71.10;;;;;;6325576;22;20011;-94
2023/05/27 10:10:41;;;;;;;12.65;2.58;;;20.50;69.40;;;;;;6320785;22;20078;-94
2023/05/27 10:13:07;;;;;;;12.88;3.33;;;20.60;69.00;;;;;;6327210;22;20066;-95
2023/05/27 10:15:34;;;;;;;19.42;4.20;;;20.80;68.20;;;;;;6321494;22;20015;-94
2023/05/27 10:18:05;;;;;;;11.35;3.08;;;21.00;67.70;;;;;;6322510;22;20059;-93
2023/05/27 10:20:42;;;;;;;7.22;3.03;;;21.10;67.00;;;;;;6324984;22;20058;-94
2023/05/27 10:23:31;;;;;;;10.15;2.47;;;21.20;66.10;;;;;;6323946;22;20016;-93
2023/05/27 10:26:07;;;;;;;10.68;2.92;;;21.30;64.80;;;;;;6315849;22;20064;-94
2023/05/27 10:28:41;;;;;;;14.02;3.03;;;21.40;64.60;;;;;;6293002;22;20026;-94
2023/05/27 10:31:14;;;;;;;8.45;2.70;;;21.40;63.80;;;;;;6319396;22;20060;-96
2023/05/27 10:33:50;;;;;;;10.20;3.00;;;21.50;63.40;;;;;;6316511;22;20006;-94
2023/05/27 10:36:23;;;;;;;16.52;2.80;;;21.70;63.00;;;;;;6314306;22;20014;-95
2023/05/27 10:38:57;;;;;;;10.32;2.60;;;21.90;62.50;;;;;;6312673;22;19999;-94
2023/05/27 10:41:23;;;;;;;8.60;2.97;;;22.10;62.00;;;;;;6315450;22;20011;-94
2023/05/27 10:43:59;;;;;;;10.13;2.58;;;22.40;61.70;;;;;;6310850;22;20003;-95
2023/05/27 10:46:25;;;;;;;9.40;2.50;;;22.50;60.30;;;;;;6284102;22;20072;-94
2023/05/27 10:49:05;;;;;;;5.40;2.50;;;22.50;60.00;;;;;;6316186;22;19987;-96
2023/05/27 10:52:16;;;;;;;10.25;2.63;;;22.60;59.80;;;;;;6330527;22;19999;-96
2023/05/27 10:54:47;;;;;;;11.00;3.38;;;22.70;59.60;;;;;;6311613;22;20016;-96
2023/05/27 10:57:14;;;;;;;11.18;2.45;;;22.80;58.90;;;;;;6297322;22;20033;-95
2023/05/27 10:59:51;;;;;;;9.00;2.53;;;22.80;58.60;;;;;;6294649;22;20003;-95
2023/05/27 11:02:17;;;;;;;7.80;2.88;;;22.90;58.10;;;;;;6285019;22;20063;-94
2023/05/27 11:04:43;;;;;;;9.48;2.65;;;23.00;57.90;;;;;;6311097;22;19999;-91
2023/05/27 11:07:08;;;;;;;11.63;3.05;;;23.20;57.70;;;;;;6285433;22;19995;-93
2023/05/27 11:09:51;;;;;;;8.90;2.88;;;23.40;57.60;;;;;;6309416;22;20004;-92
2023/05/27 11:12:19;;;;;;;10.23;3.05;;;23.50;56.80;;;;;;6284190;22;20007;-91
2023/05/27 11:14:53;;;;;;;7.97;3.00;;;23.70;56.40;;;;;;6280350;22;20033;-92
2023/05/27 11:17:20;;;;;;;10.02;3.63;;;23.80;55.90;;;;;;6307898;22;20015;-90
2023/05/27 11:19:46;;;;;;;11.07;3.00;;;23.80;55.60;;;;;;6282174;22;19999;-91
2023/05/27 11:22:14;;;;;;;7.28;2.40;;;23.80;55.70;;;;;;6282184;22;20015;-91
2023/05/27 11:24:40;;;;;;;8.00;3.05;;;24.00;55.50;;;;;;6281902;22;20634;-91
2023/05/27 11:27:14;;;;;;;6.43;2.60;;;24.10;55.20;;;;;;6282514;22;20461;-92
2023/05/27 11:29:48;;;;;;;11.23;2.95;;;24.30;54.60;;;;;;6283480;22;20007;-92
2023/05/27 11:32:20;;;;;;;12.55;2.90;;;24.40;53.60;;;;;;6282199;22;20443;-92
2023/05/27 11:34:46;;;;;;;7.40;2.47;;;24.40;53.60;;;;;;6282110;22;20475;-92
2023/05/27 11:37:15;;;;;;;7.15;2.60;;;24.40;53.10;;;;;;6282086;22;20019;-93
2023/05/27 11:39:51;;;;;;;10.68;2.88;;;24.50;52.90;;;;;;6284039;22;20003;-92
2023/05/27 11:42:22;;;;;;;9.18;2.60;;;24.70;52.70;;;;;;6313209;22;19999;-94
2023/05/27 11:44:53;;;;;;;5.05;2.20;;;24.80;51.90;;;;;;6285378;22;20003;-91
2023/05/27 11:47:19;;;;;;;10.20;2.63;;;24.80;51.80;;;;;;6310607;22;20003;-90
2023/05/27 11:49:47;;;;;;;7.80;2.45;;;25.00;51.80;;;;;;6283231;22;20029;-93
2023/05/27 11:52:13;;;;;;;8.82;2.75;;;25.10;51.60;;;;;;6282915;22;20048;-93
2023/05/27 11:54:39;;;;;;;8.05;2.30;;;25.20;50.80;;;;;;6283190;22;20445;-94
2023/05/27 11:57:10;;;;;;;6.50;2.30;;;25.20;50.20;;;;;;6283339;22;20041;-95
2023/05/27 12:02:33;;;;;;;6.13;2.10;;;25.40;49.70;;;;;;6319314;22;20023;-94
2023/05/27 12:04:58;;;;;;;12.15;2.70;;;25.50;49.40;;;;;;6317188;22;20030;-94
2023/05/27 12:07:24;;;;;;;6.55;2.08;;;25.60;49.30;;;;;;6312736;22;19995;-94
2023/05/27 12:09:51;;;;;;;9.52;2.65;;;25.70;49.30;;;;;;6309592;22;19999;-93
2023/05/27 12:12:20;;;;;;;6.60;2.45;;;25.60;49.10;;;;;;6282144;22;20329;-94
2023/05/27 12:14:46;;;;;;;9.55;2.35;;;25.60;49.30;;;;;;6282738;22;20003;-95
2023/05/27 12:17:13;;;;;;;7.53;2.55;;;25.60;49.50;;;;;;6309269;22;20064;-94
2023/05/27 12:19:38;;;;;;;8.27;2.38;;;25.70;50.10;;;;;;6281952;22;20035;-94
2023/05/27 12:22:04;;;;;;;13.30;2.75;;;25.70;50.10;;;;;;6282177;22;20018;-94
2023/05/27 12:24:30;;;;;;;7.22;2.58;;;25.60;49.80;;;;;;6285031;22;20003;-94
2023/05/27 12:26:58;;;;;;;12.35;2.75;;;25.40;50.00;;;;;;6282792;22;20006;-95
2023/05/27 12:29:27;;;;;;;8.80;2.83;;;25.60;50.40;;;;;;6312537;22;19984;-94
2023/05/27 12:31:52;;;;;;;9.45;2.38;;;25.80;50.00;;;;;;6281800;22;20216;-93
2023/05/27 12:34:18;;;;;;;9.90;2.78;;;26.00;49.80;;;;;;6309118;22;20003;-93
2023/05/27 12:36:44;;;;;;;7.72;2.80;;;26.20;49.50;;;;;;6288045;22;20019;-95
2023/05/27 12:39:10;;;;;;;11.68;2.42;;;26.30;49.20;;;;;;6314918;22;20052;-94
2023/05/27 12:41:37;;;;;;;12.80;2.80;;;26.40;49.20;;;;;;6290684;22;20443;-94
2023/05/27 12:44:03;;;;;;;9.73;2.50;;;26.30;49.00;;;;;;6287782;22;20423;-94
2023/05/27 12:46:32;;;;;;;9.57;2.72;;;26.20;48.60;;;;;;6262626;22;20057;-94